createdAt,value
2023-05-14T00:00:36.024Z,0.3931
2023-05-14T00:01:37.762Z,0.3907
2023-05-14T00:02:39.547Z,0.3851
2023-05-14T00:03:41.451Z,0.3836
2023-05-14T00:04:42.980Z,0.3852
2023-05-14T00:05:44.704Z,0.3852
2023-05-14T00:06:46.459Z,0.3860
2023-05-14T00:07:48.157Z,0.3859
2023-05-14T00:08:49.906Z,0.3866
2023-05-14T00:09:51.659Z,0.3854
2023-05-14T00:10:53.385Z,0.3828
2023-05-14T00:11:55.097Z,0.3818
2023-05-14T00:12:56.835Z,0.3815
2023-05-14T00:13:58.567Z,0.3818
2023-05-14T00:15:00.321Z,0.3813
2023-05-14T00:16:02.064Z,0.3832
2023-05-14T00:17:03.763Z,0.3807
2023-05-14T00:18:05.532Z,0.3813
2023-05-14T00:19:07.378Z,0.3842
2023-05-14T00:20:09.077Z,0.3826
2023-05-14T00:21:10.807Z,0.3802
2023-05-14T00:22:12.519Z,0.3804
2023-05-14T00:23:14.253Z,0.3818
2023-05-14T00:24:15.989Z,0.3839
2023-05-14T00:25:17.715Z,0.3867
2023-05-14T00:26:19.456Z,0.3863
2023-05-14T00:27:21.190Z,0.3852
2023-05-14T00:28:22.933Z,0.3846
2023-05-14T00:29:24.673Z,0.3843
2023-05-14T00:30:26.407Z,0.3818
2023-05-14T00:31:28.135Z,0.3807
2023-05-14T00:32:29.911Z,0.3772
2023-05-14T00:33:31.605Z,0.3786
2023-05-14T00:34:33.333Z,0.3810
2023-05-14T00:35:35.077Z,0.3820
2023-05-14T00:36:36.787Z,0.3839
2023-05-14T00:37:38.512Z,0.3842
2023-05-14T00:38:40.251Z,0.3819
2023-05-14T00:39:42.004Z,0.3789
2023-05-14T00:40:43.738Z,0.3790
2023-05-14T00:41:45.464Z,0.3821
2023-05-14T00:42:47.190Z,0.3814
2023-05-14T00:43:48.913Z,0.3832
2023-05-14T00:44:50.665Z,0.3845
2023-05-14T00:45:52.402Z,0.3873
2023-05-14T00:46:54.198Z,0.3862
2023-05-14T00:47:55.849Z,0.3815
2023-05-14T00:48:57.570Z,0.3820
2023-05-14T00:49:59.318Z,0.3779
2023-05-14T00:51:01.058Z,0.3732
2023-05-14T00:52:02.784Z,0.3733
2023-05-14T00:53:04.497Z,0.3704
2023-05-14T00:54:06.244Z,0.3716
2023-05-14T00:55:07.985Z,0.3716
2023-05-14T00:56:09.743Z,0.3740
2023-05-14T00:57:11.466Z,0.3752
2023-05-14T00:58:13.169Z,0.3738
2023-05-14T00:59:14.891Z,0.3749
2023-05-14T01:00:16.691Z,0.3770
2023-05-14T01:01:18.414Z,0.3809
2023-05-14T01:02:20.142Z,0.3795
2023-05-14T01:03:21.872Z,0.3780
2023-05-14T01:04:23.547Z,0.3755
2023-05-14T01:05:25.276Z,0.3761
2023-05-14T01:06:27.039Z,0.3824
2023-05-14T01:07:28.765Z,0.3855
2023-05-14T01:08:30.491Z,0.3837
2023-05-14T01:09:32.207Z,0.3861
2023-05-14T01:10:33.943Z,0.3858
2023-05-14T01:11:35.685Z,0.3868
2023-05-14T01:12:37.427Z,0.3871
2023-05-14T01:13:39.159Z,0.3868
2023-05-14T01:14:40.873Z,0.3844
2023-05-14T01:15:42.602Z,0.3863
2023-05-14T01:16:44.361Z,0.3901
2023-05-14T01:17:46.118Z,0.3918
2023-05-14T01:18:47.878Z,0.3908
2023-05-14T01:19:49.531Z,0.3886
2023-05-14T01:20:51.267Z,0.3879
2023-05-14T01:21:53.012Z,0.3857
2023-05-14T01:22:54.772Z,0.3822
2023-05-14T01:23:56.488Z,0.3777
2023-05-14T01:24:58.227Z,0.3753
2023-05-14T01:25:59.937Z,0.3750
2023-05-14T01:27:01.684Z,0.3751
2023-05-14T01:28:03.397Z,0.3754
2023-05-14T01:29:05.164Z,0.3752
2023-05-14T01:30:06.886Z,0.3730
2023-05-14T01:31:08.605Z,0.3732
2023-05-14T01:32:10.433Z,0.3719
2023-05-14T01:33:12.070Z,0.3695
2023-05-14T01:34:13.820Z,0.3725
2023-05-14T01:35:15.563Z,0.3760
2023-05-14T01:36:17.265Z,0.3797
2023-05-14T01:37:19.008Z,0.3860
2023-05-14T01:38:20.755Z,0.3888
2023-05-14T01:39:22.465Z,0.3863
2023-05-14T01:40:24.395Z,0.3855
2023-05-14T01:41:25.926Z,0.3808
2023-05-14T01:42:27.680Z,0.3773
2023-05-14T01:43:29.510Z,0.3754
2023-05-14T01:44:31.136Z,0.3743
2023-05-14T01:45:32.845Z,0.3725
2023-05-14T01:46:34.579Z,0.3739
2023-05-14T01:47:36.364Z,0.3732
2023-05-14T01:48:38.059Z,0.3784
2023-05-14T01:49:39.786Z,0.3809
2023-05-14T01:50:41.502Z,0.3835
2023-05-14T01:51:43.242Z,0.3854
2023-05-14T01:52:45.004Z,0.3881
2023-05-14T01:53:46.692Z,0.3896
2023-05-14T01:54:48.435Z,0.3882
2023-05-14T01:55:50.160Z,0.3904
2023-05-14T01:56:51.907Z,0.3927
2023-05-14T01:57:53.643Z,0.3942
2023-05-14T01:58:55.369Z,0.3967
2023-05-14T01:59:57.080Z,0.3986
2023-05-14T02:00:58.888Z,0.3977
2023-05-14T02:02:00.742Z,0.3941
2023-05-14T02:03:02.359Z,0.3922
2023-05-14T02:04:04.104Z,0.3918
2023-05-14T02:05:06.913Z,0.3940
2023-05-14T02:07:27.112Z,0.3363
2023-05-14T02:08:28.754Z,0.3429
2023-05-14T02:09:30.486Z,0.3443
2023-05-14T02:12:26.325Z,0.3920
2023-05-14T02:13:28.043Z,0.3893
2023-05-14T02:14:29.773Z,0.3887
2023-05-14T02:15:31.531Z,0.3900
2023-05-14T02:16:33.257Z,0.4111
2023-05-14T02:17:35.037Z,0.4119
2023-05-14T02:18:36.759Z,0.4149
2023-05-14T02:19:38.480Z,0.4060
2023-05-14T02:20:40.188Z,0.3969
2023-05-14T02:21:41.939Z,0.4008
2023-05-14T02:22:43.655Z,0.4015
2023-05-14T02:23:45.387Z,0.4017
2023-05-14T02:24:47.132Z,0.3943
2023-05-14T02:25:48.855Z,0.3935
2023-05-14T02:26:50.621Z,0.3993
2023-05-14T02:27:52.355Z,0.4006
2023-05-14T02:28:54.072Z,0.3995
2023-05-14T02:29:55.805Z,0.3993
2023-05-14T02:34:11.282Z,0.4623
2023-05-14T02:35:13.001Z,0.4559
2023-05-14T02:36:14.761Z,0.4285
2023-05-14T02:37:16.468Z,0.4093
2023-05-14T02:38:18.259Z,0.4207
2023-05-14T02:39:19.947Z,0.4271
2023-05-14T02:40:21.871Z,0.4290
2023-05-14T02:41:23.418Z,0.4204
2023-05-14T02:42:25.173Z,0.4129
2023-05-14T02:43:26.898Z,0.4137
2023-05-14T02:44:28.651Z,0.4131
2023-05-14T02:45:30.393Z,0.4103
2023-05-14T02:46:32.314Z,0.4083
2023-05-14T02:47:36.030Z,0.4048
2023-05-14T02:48:35.571Z,0.4108
2023-05-14T02:49:37.328Z,0.4126
2023-05-14T02:50:39.064Z,0.4107
2023-05-14T02:51:40.774Z,0.4117
2023-05-14T02:52:42.503Z,0.4129
2023-05-14T02:53:44.239Z,0.4136
2023-05-14T02:54:46.004Z,0.4155
2023-05-14T02:55:47.758Z,0.4211
2023-05-14T02:56:49.443Z,0.4252
2023-05-14T02:57:51.185Z,0.4230
2023-05-14T02:58:52.922Z,0.4232
2023-05-14T02:59:54.670Z,0.4256
2023-05-14T03:00:56.486Z,0.4215
2023-05-14T03:01:58.199Z,0.4174
2023-05-14T03:02:59.876Z,0.4193
2023-05-14T03:04:01.592Z,0.4179
2023-05-14T03:05:03.323Z,0.4103
2023-05-14T03:06:05.085Z,0.4115
2023-05-14T03:07:06.818Z,0.4149
2023-05-14T03:08:08.529Z,0.4112
2023-05-14T03:09:10.269Z,0.4087
2023-05-14T03:10:11.993Z,0.4080
2023-05-14T03:11:13.763Z,0.4107
2023-05-14T03:12:15.486Z,0.4099
2023-05-14T03:13:17.221Z,0.4067
2023-05-14T03:14:18.972Z,0.4053
2023-05-14T03:15:20.672Z,0.4085
2023-05-14T03:16:22.442Z,0.4066
2023-05-14T03:17:24.217Z,0.4043
2023-05-14T03:18:25.969Z,0.4035
2023-05-14T03:19:27.619Z,0.4029
2023-05-14T03:20:29.331Z,0.4058
2023-05-14T03:21:31.072Z,0.4077
2023-05-14T03:22:32.829Z,0.4023
2023-05-14T03:23:34.585Z,0.4020
2023-05-14T03:24:36.301Z,0.4026
2023-05-14T03:25:38.027Z,0.4029
2023-05-14T03:26:39.756Z,0.4079
2023-05-14T03:27:41.514Z,0.4073
2023-05-14T03:28:43.259Z,0.4074
2023-05-14T03:29:44.958Z,0.4105
2023-05-14T03:30:46.764Z,0.4101
2023-05-14T03:31:48.445Z,0.4124
2023-05-14T03:32:50.235Z,0.4131
2023-05-14T03:33:51.934Z,0.4120
2023-05-14T03:34:53.645Z,0.4129
2023-05-14T03:35:55.385Z,0.4146
2023-05-14T03:36:57.133Z,0.4132
2023-05-14T03:37:58.877Z,0.4159
2023-05-14T03:39:00.620Z,0.4155
2023-05-14T03:40:02.358Z,0.4148
2023-05-14T03:41:04.060Z,0.4181
2023-05-14T03:42:05.796Z,0.4168
2023-05-14T03:43:07.543Z,0.4181
2023-05-14T03:44:09.294Z,0.4168
2023-05-14T03:45:11.037Z,0.4131
2023-05-14T03:46:12.740Z,0.4145
2023-05-14T03:47:14.472Z,0.4120
2023-05-14T03:48:16.298Z,0.4079
2023-05-14T03:49:17.983Z,0.4098
2023-05-14T03:50:19.697Z,0.4118
2023-05-14T03:51:21.434Z,0.4104
2023-05-14T03:52:23.151Z,0.4108
2023-05-14T03:53:24.885Z,0.4118
2023-05-14T03:54:26.638Z,0.4114
2023-05-14T03:55:28.375Z,0.4092
2023-05-14T03:56:30.095Z,0.4121
2023-05-14T03:57:31.847Z,0.4142
2023-05-14T03:58:33.586Z,0.4182
2023-05-14T03:59:35.315Z,0.4180
2023-05-14T04:00:37.032Z,0.4146
2023-05-14T04:01:38.791Z,0.4143
2023-05-14T04:02:40.561Z,0.4162
2023-05-14T04:03:42.368Z,0.4132
2023-05-14T04:04:44.000Z,0.4098
2023-05-14T04:05:45.725Z,0.4109
2023-05-14T04:06:47.455Z,0.4166
2023-05-14T04:07:49.221Z,0.4147
2023-05-14T04:08:50.908Z,0.4133
2023-05-14T04:09:52.662Z,0.4183
2023-05-14T04:10:54.424Z,0.4202
2023-05-14T04:11:56.125Z,0.4186
2023-05-14T04:12:57.876Z,0.4157
2023-05-14T04:13:59.577Z,0.4124
2023-05-14T04:15:01.330Z,0.4078
2023-05-14T04:16:03.060Z,0.4081
2023-05-14T04:17:04.814Z,0.4053
2023-05-14T04:18:06.629Z,0.4007
2023-05-14T04:19:08.322Z,0.3987
2023-05-14T04:20:09.991Z,0.4002
2023-05-14T04:21:11.727Z,0.4019
2023-05-14T04:22:13.465Z,0.3981
2023-05-14T04:23:15.214Z,0.3966
2023-05-14T04:24:16.950Z,0.3957
2023-05-14T04:25:18.667Z,0.3968
2023-05-14T04:26:20.430Z,0.3990
2023-05-14T04:27:22.138Z,0.4027
2023-05-14T04:28:23.895Z,0.4041
2023-05-14T04:29:25.634Z,0.4040
2023-05-14T04:30:27.382Z,0.4051
2023-05-14T04:31:29.130Z,0.4054
2023-05-14T04:32:30.818Z,0.4040
2023-05-14T04:33:32.569Z,0.4017
2023-05-14T04:34:34.296Z,0.4024
2023-05-14T04:35:36.067Z,0.4005
2023-05-14T04:36:37.751Z,0.3976
2023-05-14T04:37:39.472Z,0.3998
2023-05-14T04:38:41.226Z,0.3996
2023-05-14T04:39:42.963Z,0.4002
2023-05-14T04:40:44.698Z,0.4018
2023-05-14T04:41:46.429Z,0.4047
2023-05-14T04:42:48.169Z,0.4007
2023-05-14T04:43:49.892Z,0.4011
2023-05-14T04:44:51.599Z,0.4034
2023-05-14T04:45:53.363Z,0.4045
2023-05-14T04:46:55.096Z,0.4022
2023-05-14T04:47:56.859Z,0.3997
2023-05-14T04:48:58.574Z,0.3993
2023-05-14T04:50:00.396Z,0.3970
2023-05-14T04:51:02.025Z,0.3993
2023-05-14T04:52:03.767Z,0.3987
2023-05-14T04:53:05.508Z,0.3970
2023-05-14T04:54:07.238Z,0.3968
2023-05-14T04:55:08.960Z,0.3993
2023-05-14T04:56:10.696Z,0.3987
2023-05-14T04:57:12.425Z,0.4032
2023-05-14T04:58:14.139Z,0.3991
2023-05-14T04:59:15.872Z,0.3948
2023-05-14T05:00:17.610Z,0.3909
2023-05-14T05:01:19.420Z,0.3879
2023-05-14T05:02:21.092Z,0.3858
2023-05-14T05:03:22.967Z,0.3880
2023-05-14T05:04:24.540Z,0.3910
2023-05-14T05:05:26.288Z,0.3949
2023-05-14T05:06:28.050Z,0.3916
2023-05-14T05:07:29.781Z,0.3895
2023-05-14T05:08:31.501Z,0.3851
2023-05-14T05:09:33.217Z,0.3848
2023-05-14T05:10:34.998Z,0.3852
2023-05-14T05:11:36.706Z,0.3828
2023-05-14T05:12:38.466Z,0.3806
2023-05-14T05:13:40.157Z,0.3825
2023-05-14T05:14:41.889Z,0.3823
2023-05-14T05:15:43.659Z,0.3798
2023-05-14T05:16:45.382Z,0.3766
2023-05-14T05:17:47.180Z,0.3759
2023-05-14T05:18:48.879Z,0.3771
2023-05-14T05:19:50.582Z,0.3750
2023-05-14T05:20:52.297Z,0.3746
2023-05-14T05:21:54.053Z,0.3755
2023-05-14T05:22:55.791Z,0.3780
2023-05-14T05:23:57.514Z,0.3798
2023-05-14T05:24:59.240Z,0.3824
2023-05-14T05:26:00.989Z,0.3866
2023-05-14T05:27:02.742Z,0.3883
2023-05-14T05:28:04.460Z,0.3884
2023-05-14T05:29:06.213Z,0.3926
2023-05-14T05:30:07.917Z,0.3914
2023-05-14T05:31:09.662Z,0.3915
2023-05-14T05:32:11.393Z,0.3951
2023-05-14T05:33:13.131Z,0.3965
2023-05-14T05:34:14.863Z,0.3981
2023-05-14T05:35:16.581Z,0.3994
2023-05-14T05:36:18.320Z,0.3976
2023-05-14T05:37:20.049Z,0.3972
2023-05-14T05:38:21.799Z,0.3956
2023-05-14T05:39:23.546Z,0.3957
2023-05-14T05:40:25.661Z,0.3958
2023-05-14T05:41:26.972Z,0.3969
2023-05-14T05:42:28.721Z,0.3995
2023-05-14T05:43:30.437Z,0.3982
2023-05-14T05:44:32.197Z,0.3952
2023-05-14T05:45:33.922Z,0.3950
2023-05-14T05:46:35.675Z,0.3953
2023-05-14T05:47:37.468Z,0.3944
2023-05-14T05:48:39.109Z,0.3942
2023-05-14T05:49:40.870Z,0.3950
2023-05-14T05:50:42.591Z,0.3986
2023-05-14T05:51:44.326Z,0.4001
2023-05-14T05:52:46.036Z,0.3970
2023-05-14T05:53:47.842Z,0.4001
2023-05-14T05:54:49.524Z,0.4031
2023-05-14T05:55:51.237Z,0.4079
2023-05-14T05:56:52.980Z,0.4069
2023-05-14T05:57:54.714Z,0.4042
2023-05-14T05:58:56.470Z,0.4037
2023-05-14T05:59:58.196Z,0.4056
2023-05-14T06:00:59.913Z,0.4041
2023-05-14T06:02:01.667Z,0.4065
2023-05-14T06:03:03.416Z,0.4087
2023-05-14T06:04:05.115Z,0.4120
2023-05-14T06:05:06.874Z,0.4121
2023-05-14T06:06:08.622Z,0.4084
2023-05-14T06:07:10.292Z,0.4046
2023-05-14T06:08:12.046Z,0.4043
2023-05-14T06:09:13.764Z,0.4005
2023-05-14T06:10:15.537Z,0.3981
2023-05-14T06:11:17.282Z,0.3965
2023-05-14T06:12:18.967Z,0.3941
2023-05-14T06:13:20.707Z,0.3911
2023-05-14T06:14:22.432Z,0.3899
2023-05-14T06:15:24.199Z,0.3907
2023-05-14T06:16:25.931Z,0.3920
2023-05-14T06:17:27.733Z,0.3906
2023-05-14T06:18:29.411Z,0.3886
2023-05-14T06:19:31.097Z,0.3899
2023-05-14T06:20:32.856Z,0.3911
2023-05-14T06:21:34.586Z,0.3934
2023-05-14T06:22:36.329Z,0.3945
2023-05-14T06:23:38.044Z,0.3926
2023-05-14T06:24:39.767Z,0.3915
2023-05-14T06:25:41.487Z,0.3935
2023-05-14T06:26:43.231Z,0.3910
2023-05-14T06:27:44.974Z,0.3924
2023-05-14T06:28:46.697Z,0.3953
2023-05-14T06:29:48.416Z,0.4018
2023-05-14T06:30:50.148Z,0.4004
2023-05-14T06:31:51.900Z,0.3979
2023-05-14T06:32:53.654Z,0.3980
2023-05-14T06:33:55.343Z,0.3953
2023-05-14T06:34:57.094Z,0.3945
2023-05-14T06:35:58.932Z,0.3933
2023-05-14T06:37:00.654Z,0.3922
2023-05-14T06:38:02.366Z,0.3963
2023-05-14T06:39:04.103Z,0.3961
2023-05-14T06:40:05.836Z,0.3920
2023-05-14T06:41:07.580Z,0.3932
2023-05-14T06:42:09.325Z,0.3931
2023-05-14T06:43:11.019Z,0.3923
2023-05-14T06:44:12.751Z,0.3947
2023-05-14T06:45:14.478Z,0.3971
2023-05-14T06:46:16.263Z,0.3956
2023-05-14T06:47:17.989Z,0.3961
2023-05-14T06:48:19.773Z,0.3943
2023-05-14T06:49:21.403Z,0.3942
2023-05-14T06:50:23.290Z,0.3981
2023-05-14T06:51:24.887Z,0.3967
2023-05-14T06:52:26.619Z,0.3950
2023-05-14T06:53:28.370Z,0.3937
2023-05-14T06:54:30.102Z,0.3983
2023-05-14T06:55:31.835Z,0.4012
2023-05-14T06:56:33.572Z,0.3984
2023-05-14T06:57:35.303Z,0.3983
2023-05-14T06:58:37.022Z,0.3991
2023-05-14T06:59:38.732Z,0.3966
2023-05-14T07:00:40.500Z,0.3971
2023-05-14T07:01:42.250Z,0.3972
2023-05-14T07:02:44.011Z,0.3922
2023-05-14T07:03:45.702Z,0.3901
2023-05-14T07:04:47.452Z,0.3877
2023-05-14T07:05:49.134Z,0.3878
2023-05-14T07:06:50.870Z,0.3872
2023-05-14T07:07:52.605Z,0.3866
2023-05-14T07:08:54.366Z,0.3874
2023-05-14T07:09:56.100Z,0.3896
2023-05-14T07:10:57.819Z,0.3906
2023-05-14T07:11:59.538Z,0.3977
2023-05-14T07:13:01.277Z,0.3987
2023-05-14T07:14:02.999Z,0.4002
2023-05-14T07:15:04.759Z,0.3999
2023-05-14T07:16:06.476Z,0.4007
2023-05-14T07:17:08.260Z,0.3990
2023-05-14T07:18:09.934Z,0.4018
2023-05-14T07:19:11.725Z,0.4045
2023-05-14T07:20:13.412Z,0.4024
2023-05-14T07:21:15.128Z,0.4003
2023-05-14T07:22:16.876Z,0.4005
2023-05-14T07:23:19.774Z,0.4018
2023-05-14T07:24:20.316Z,0.3976
2023-05-14T07:25:22.062Z,0.3991
2023-05-14T07:26:23.799Z,0.4008
2023-05-14T07:27:25.531Z,0.4015
2023-05-14T07:28:27.243Z,0.4040
2023-05-14T07:29:28.986Z,0.4023
2023-05-14T07:30:30.718Z,0.3993
2023-05-14T07:31:32.485Z,0.4011
2023-05-14T07:32:34.191Z,0.4013
2023-05-14T07:33:35.923Z,0.4024
2023-05-14T07:34:37.644Z,0.4026
2023-05-14T07:35:39.378Z,0.4043
2023-05-14T07:36:41.083Z,0.4038
2023-05-14T07:37:42.845Z,0.4054
2023-05-14T07:38:44.550Z,0.4087
2023-05-14T07:39:46.293Z,0.4100
2023-05-14T07:40:48.028Z,0.4128
2023-05-14T07:41:49.732Z,0.4164
2023-05-14T07:42:51.472Z,0.4188
2023-05-14T07:43:53.216Z,0.4167
2023-05-14T07:44:54.950Z,0.4153
2023-05-14T07:45:56.688Z,0.4143
2023-05-14T07:46:58.442Z,0.4132
2023-05-14T07:48:00.317Z,0.4154
2023-05-14T07:49:01.856Z,0.4133
2023-05-14T07:50:03.596Z,0.4133
2023-05-14T07:51:05.352Z,0.4165
2023-05-14T07:52:07.067Z,0.4155
2023-05-14T07:53:08.776Z,0.4135
2023-05-14T07:54:10.512Z,0.4118
2023-05-14T07:55:12.247Z,0.4062
2023-05-14T07:56:14.006Z,0.4054
2023-05-14T07:57:15.730Z,0.4034
2023-05-14T07:58:17.435Z,0.4069
2023-05-14T07:59:19.178Z,0.4084
2023-05-14T08:00:20.970Z,0.4104
2023-05-14T08:01:22.657Z,0.4114
2023-05-14T08:02:24.505Z,0.4119
2023-05-14T08:03:26.205Z,0.4108
2023-05-14T08:04:27.895Z,0.4070
2023-05-14T08:05:29.583Z,0.4007
2023-05-14T08:06:31.289Z,0.4008
2023-05-14T08:07:33.038Z,0.3997
2023-05-14T08:08:34.773Z,0.4080
2023-05-14T08:09:36.481Z,0.4072
2023-05-14T08:10:38.235Z,0.4087
2023-05-14T08:11:39.961Z,0.4123
2023-05-14T08:12:41.676Z,0.4126
2023-05-14T08:13:43.434Z,0.4124
2023-05-14T08:14:45.138Z,0.4133
2023-05-14T08:15:46.884Z,0.4144
2023-05-14T08:16:48.670Z,0.4156
2023-05-14T08:17:50.371Z,0.4157
2023-05-14T08:18:52.078Z,0.4191
2023-05-14T08:19:53.773Z,0.4212
2023-05-14T08:20:55.535Z,0.4204
2023-05-14T08:21:57.256Z,0.4177
2023-05-14T08:22:58.996Z,0.4141
2023-05-14T08:24:00.707Z,0.4109
2023-05-14T08:25:02.462Z,0.4112
2023-05-14T08:26:04.200Z,0.4099
2023-05-14T08:27:05.889Z,0.4081
2023-05-14T08:28:07.653Z,0.4040
2023-05-14T08:29:10.765Z,0.4027
2023-05-14T08:30:11.105Z,0.4020
2023-05-14T08:31:12.861Z,0.4008
2023-05-14T08:32:22.766Z,0.4011
2023-05-14T08:33:16.274Z,0.3998
2023-05-14T08:34:18.029Z,0.4032
2023-05-14T08:35:19.763Z,0.4028
2023-05-14T08:36:21.499Z,0.4071
2023-05-14T08:37:23.208Z,0.4086
2023-05-14T08:38:24.927Z,0.4042
2023-05-14T08:39:26.654Z,0.4031
2023-05-14T08:40:28.414Z,0.3996
2023-05-14T08:41:30.136Z,0.3982
2023-05-14T08:42:31.848Z,0.4021
2023-05-14T08:43:33.573Z,0.4015
2023-05-14T08:44:35.353Z,0.4030
2023-05-14T08:45:37.054Z,0.4038
2023-05-14T08:46:38.793Z,0.4020
2023-05-14T08:47:40.547Z,0.3985
2023-05-14T08:48:42.241Z,0.3964
2023-05-14T08:49:43.960Z,0.3952
2023-05-14T08:50:45.709Z,0.3944
2023-05-14T08:51:47.447Z,0.3940
2023-05-14T08:52:49.160Z,0.3952
2023-05-14T08:53:50.875Z,0.3913
2023-05-14T08:54:52.611Z,0.3917
2023-05-14T08:55:54.332Z,0.3973
2023-05-14T08:56:56.079Z,0.3958
2023-05-14T08:57:57.810Z,0.3938
2023-05-14T08:58:59.505Z,0.3924
2023-05-14T09:00:01.290Z,0.3897
2023-05-14T09:01:02.968Z,0.3865
2023-05-14T09:02:04.810Z,0.3883
2023-05-14T09:03:06.487Z,0.3934
2023-05-14T09:04:08.157Z,0.3924
2023-05-14T09:05:09.898Z,0.3904
2023-05-14T09:06:11.598Z,0.3895
2023-05-14T09:07:13.351Z,0.3863
2023-05-14T09:08:15.073Z,0.3901
2023-05-14T09:09:16.819Z,0.3906
2023-05-14T09:10:18.526Z,0.3920
2023-05-14T09:11:20.241Z,0.3949
2023-05-14T09:12:22.011Z,0.3961
2023-05-14T09:13:24.140Z,0.3929
2023-05-14T09:14:25.449Z,0.3933
2023-05-14T09:15:27.161Z,0.3916
2023-05-14T09:16:28.941Z,0.3890
2023-05-14T09:17:30.671Z,0.3916
2023-05-14T09:18:32.397Z,0.3918
2023-05-14T09:19:34.110Z,0.3908
2023-05-14T09:20:35.805Z,0.3913
2023-05-14T09:21:37.518Z,0.3897
2023-05-14T09:22:39.264Z,0.3872
2023-05-14T09:23:41.004Z,0.3877
2023-05-14T09:24:42.730Z,0.3887
2023-05-14T09:25:44.460Z,0.3902
2023-05-14T09:26:46.188Z,0.3913
2023-05-14T09:27:47.913Z,0.3884
2023-05-14T09:28:49.635Z,0.3887
2023-05-14T09:29:51.341Z,0.3901
2023-05-14T09:30:53.082Z,0.3887
2023-05-14T09:31:54.898Z,0.3903
2023-05-14T09:32:56.615Z,0.3872
2023-05-14T09:33:58.292Z,0.3861
2023-05-14T09:34:59.992Z,0.3866
2023-05-14T09:36:01.723Z,0.3888
2023-05-14T09:37:03.475Z,0.3904
2023-05-14T09:38:05.190Z,0.3938
2023-05-14T09:39:06.921Z,0.3931
2023-05-14T09:40:08.637Z,0.3946
2023-05-14T09:41:10.358Z,0.3946
2023-05-14T09:42:12.099Z,0.3966
2023-05-14T09:43:13.820Z,0.3980
2023-05-14T09:44:15.545Z,0.3998
2023-05-14T09:45:17.271Z,0.4013
2023-05-14T09:46:18.990Z,0.4027
2023-05-14T09:47:20.799Z,0.4014
2023-05-14T09:48:22.579Z,0.4017
2023-05-14T09:49:24.180Z,0.4008
2023-05-14T09:50:26.153Z,0.4031
2023-05-14T09:51:27.640Z,0.4027
2023-05-14T09:52:29.360Z,0.4015
2023-05-14T09:53:31.087Z,0.4003
2023-05-14T09:54:32.815Z,0.3993
2023-05-14T09:55:34.519Z,0.3976
2023-05-14T09:56:36.286Z,0.3988
2023-05-14T09:57:38.002Z,0.4017
2023-05-14T09:58:39.709Z,0.4018
2023-05-14T09:59:41.431Z,0.4006
2023-05-14T10:00:43.189Z,0.4014
2023-05-14T10:01:44.983Z,0.4028
2023-05-14T10:02:46.699Z,0.4100
2023-05-14T10:03:48.369Z,0.4125
2023-05-14T10:04:50.325Z,0.4117
2023-05-14T10:05:51.820Z,0.4103
2023-05-14T10:06:53.546Z,0.4072
2023-05-14T10:07:55.289Z,0.4059
2023-05-14T10:08:57.003Z,0.4035
2023-05-14T10:09:59.546Z,0.4041
2023-05-14T10:11:00.472Z,0.4044
2023-05-14T10:12:02.214Z,0.4037
2023-05-14T10:13:03.899Z,0.4022
2023-05-14T10:14:05.639Z,0.4052
2023-05-14T10:15:07.386Z,0.4031
2023-05-14T10:16:09.121Z,0.4011
2023-05-14T10:17:10.950Z,0.4000
2023-05-14T10:18:12.607Z,0.3992
2023-05-14T10:19:14.305Z,0.4000
2023-05-14T10:20:16.054Z,0.4023
2023-05-14T10:21:17.764Z,0.4008
2023-05-14T10:22:19.494Z,0.4011
2023-05-14T10:23:21.226Z,0.4041
2023-05-14T10:24:22.927Z,0.4033
2023-05-14T10:25:24.669Z,0.4020
2023-05-14T10:26:26.431Z,0.4019
2023-05-14T10:27:28.140Z,0.4003
2023-05-14T10:28:29.861Z,0.4014
2023-05-14T10:29:31.571Z,0.4040
2023-05-14T10:30:33.304Z,0.4077
2023-05-14T10:31:35.094Z,0.4097
2023-05-14T10:32:36.829Z,0.4095
2023-05-14T10:33:38.513Z,0.4115
2023-05-14T10:34:40.235Z,0.4104
2023-05-14T10:35:41.943Z,0.4108
2023-05-14T10:36:43.673Z,0.4093
2023-05-14T10:37:45.429Z,0.4088
2023-05-14T10:38:47.159Z,0.4073
2023-05-14T10:39:48.978Z,0.4029
2023-05-14T10:40:52.824Z,0.4008
2023-05-14T10:41:52.418Z,0.3997
2023-05-14T10:42:54.136Z,0.4020
2023-05-14T10:43:55.897Z,0.4029
2023-05-14T10:44:57.623Z,0.4038
2023-05-14T10:45:59.331Z,0.4017
2023-05-14T10:47:01.070Z,0.4001
2023-05-14T10:48:02.788Z,0.3982
2023-05-14T10:49:04.536Z,0.3980
2023-05-14T10:50:06.266Z,0.3989
2023-05-14T10:51:08.043Z,0.3944
2023-05-14T10:52:09.691Z,0.3951
2023-05-14T10:53:11.422Z,0.3944
2023-05-14T10:54:13.168Z,0.3945
2023-05-14T10:55:14.926Z,0.3944
2023-05-14T10:56:16.632Z,0.3956
2023-05-14T10:57:18.370Z,0.3968
2023-05-14T10:58:20.068Z,0.3953
2023-05-14T10:59:21.820Z,0.3942
2023-05-14T11:00:23.746Z,0.3936
2023-05-14T11:01:25.328Z,0.3925
2023-05-14T11:02:27.043Z,0.3923
2023-05-14T11:03:28.765Z,0.3931
2023-05-14T11:04:30.456Z,0.3976
2023-05-14T11:05:32.203Z,0.3996
2023-05-14T11:06:33.930Z,0.3998
2023-05-14T11:07:35.674Z,0.3991
2023-05-14T11:08:37.395Z,0.4018
2023-05-14T11:09:39.106Z,0.4024
2023-05-14T11:10:40.826Z,0.4027
2023-05-14T11:11:42.604Z,0.4019
2023-05-14T11:12:44.323Z,0.4023
2023-05-14T11:13:46.051Z,0.4006
2023-05-14T11:14:47.783Z,0.3994
2023-05-14T11:15:49.503Z,0.4034
2023-05-14T11:16:51.233Z,0.4087
2023-05-14T11:17:52.954Z,0.4078
2023-05-14T11:18:54.739Z,0.4109
2023-05-14T11:19:56.412Z,0.4132
2023-05-14T11:20:58.146Z,0.4117
2023-05-14T11:21:59.850Z,0.4130
2023-05-14T11:23:01.577Z,0.4134
2023-05-14T11:24:03.303Z,0.4149
2023-05-14T11:25:05.052Z,0.4190
2023-05-14T11:26:06.841Z,0.4178
2023-05-14T11:27:08.497Z,0.4204
2023-05-14T11:28:10.248Z,0.4241
2023-05-14T11:29:11.961Z,0.4229
2023-05-14T11:30:13.689Z,0.4210
2023-05-14T11:31:15.444Z,0.4254
2023-05-14T11:32:17.169Z,0.4239
2023-05-14T11:33:18.954Z,0.4239
2023-05-14T11:34:20.627Z,0.3920
2023-05-14T11:35:22.355Z,0.4217
2023-05-14T11:36:24.061Z,0.4174
2023-05-14T11:37:25.793Z,0.4185
2023-05-14T11:38:27.527Z,0.4183
2023-05-14T11:39:29.257Z,0.4228
2023-05-14T11:40:31.002Z,0.4217
2023-05-14T11:41:32.705Z,0.4177
2023-05-14T11:42:34.448Z,0.4145
2023-05-14T11:43:36.166Z,0.4165
2023-05-14T11:44:37.921Z,0.4142
2023-05-14T11:45:39.693Z,0.4118
2023-05-14T11:46:41.413Z,0.4085
2023-05-14T11:47:43.116Z,0.4070
2023-05-14T11:48:44.809Z,0.4054
2023-05-14T11:49:46.556Z,0.4035
2023-05-14T11:50:48.284Z,0.4025
2023-05-14T11:51:50.013Z,0.4010
2023-05-14T11:52:51.723Z,0.4011
2023-05-14T11:53:53.445Z,0.4042
2023-05-14T11:54:55.193Z,0.4033
2023-05-14T11:55:56.923Z,0.4025
2023-05-14T11:56:58.625Z,0.4053
2023-05-14T11:58:00.365Z,0.4046
2023-05-14T11:59:02.091Z,0.4072
2023-05-14T12:00:03.820Z,0.4084
2023-05-14T12:01:05.582Z,0.4092
2023-05-14T12:02:07.337Z,0.4090
2023-05-14T12:03:09.065Z,0.4141
2023-05-14T12:04:10.843Z,0.4202
2023-05-14T12:05:12.570Z,0.4199
2023-05-14T12:06:14.213Z,0.4193
2023-05-14T12:07:15.952Z,0.4199
2023-05-14T12:08:17.660Z,0.4259
2023-05-14T12:09:19.380Z,0.4211
2023-05-14T12:10:21.121Z,0.4226
2023-05-14T12:11:22.863Z,0.4227
2023-05-14T12:12:24.600Z,0.4226
2023-05-14T12:13:26.325Z,0.4243
2023-05-14T12:14:28.037Z,0.4233
2023-05-14T12:15:29.775Z,0.4219
2023-05-14T12:16:31.588Z,0.4162
2023-05-14T12:17:33.261Z,0.4125
2023-05-14T12:18:35.060Z,0.4095
2023-05-14T12:19:36.697Z,0.4082
2023-05-14T12:20:38.430Z,0.4082
2023-05-14T12:21:40.165Z,0.4104
2023-05-14T12:22:41.864Z,0.4115
2023-05-14T12:23:43.605Z,0.4131
2023-05-14T12:24:45.347Z,0.4124
2023-05-14T12:25:47.073Z,0.4128
2023-05-14T12:26:48.814Z,0.4139
2023-05-14T12:27:50.515Z,0.4091
2023-05-14T12:28:52.256Z,0.4054
2023-05-14T12:29:53.997Z,0.4018
2023-05-14T12:30:55.747Z,0.4030
2023-05-14T12:31:57.546Z,0.4050
2023-05-14T12:32:59.250Z,0.4056
2023-05-14T12:34:00.908Z,0.4049
2023-05-14T12:35:02.632Z,0.4056
2023-05-14T12:36:20.578Z,0.4053
2023-05-14T12:37:06.125Z,0.4045
2023-05-14T12:38:07.851Z,0.4045
2023-05-14T12:39:09.584Z,0.4073
2023-05-14T12:40:11.294Z,0.4088
2023-05-14T12:41:13.055Z,0.4091
2023-05-14T12:42:14.775Z,0.4095
2023-05-14T12:43:16.512Z,0.4119
2023-05-14T12:44:18.216Z,0.4121
2023-05-14T12:45:19.937Z,0.4102
2023-05-14T12:46:21.677Z,0.4089
2023-05-14T12:47:23.457Z,0.4103
2023-05-14T12:48:25.130Z,0.4104
2023-05-14T12:49:26.864Z,0.4135
2023-05-14T12:50:28.591Z,0.4165
2023-05-14T12:51:30.330Z,0.4183
2023-05-14T12:53:33.798Z,0.4171
2023-05-14T12:54:35.529Z,0.4198
2023-05-14T12:55:37.235Z,0.4209
2023-05-14T12:56:38.968Z,0.4195
2023-05-14T12:57:40.705Z,0.4179